Overview Statistics Trail Chart Weather Telemetry Raw packets
 

This is the latest recevied weather packets stored in our database for station/object K7DC. If no packets are shown the sender has not sent any weather packets the latest 10 day(s).

<< 25 26 27 28 29 30 31 >>
Time Temp. Humidity Pressure Rain* Wind** Luminosity Snow
1788464555 35.56° C 37% 1015.1 hPa 0 mm - 919 W/m² -
1788464250 34.44° C 41% 1015.3 hPa 0 mm - 1013 W/m² -
1788463945 34.44° C 39% 1015.5 hPa 0 mm - 1050 W/m² -
1788463642 34.44° C 40% 1015.7 hPa 0 mm - 940 W/m² -
1788463337 33.89° C 41% 1015.6 hPa 0 mm - 958 W/m² -
1788463033 32.78° C 43% 1015.9 hPa 0 mm - 963 W/m² -
1788462728 32.78° C 44% 1015.6 hPa 0 mm - 756 W/m² -
1788462423 32.78° C 44% 1016 hPa 0 mm - 675 W/m² -
1788462122 32.22° C 45% 1015.9 hPa 0 mm - 484 W/m² -
1788461818 32.22° C 46% 1016 hPa 0 mm - 442 W/m² -
1788461512 31.67° C 45% 1016.3 hPa 0 mm - 684 W/m² -
1788461209 31.67° C 47% 1016.1 hPa 0 mm - 638 W/m² -
1788460920 32.22° C 47% 1016.4 hPa 0 mm - 492 W/m² -
1788460603 32.78° C 45% 1016.6 hPa 0 mm - 441 W/m² -
1788460298 32.22° C 46% 1016.4 hPa 0 mm - 478 W/m² -
1788459997 32.78° C 45% 1016.5 hPa 0 mm - 517 W/m² -
1788459693 32.78° C 45% 1017 hPa 0 mm - 631 W/m² -
1788459391 32.22° C 47% 1016.7 hPa 0 mm - 707 W/m² -
1788459086 31.11° C 50% 1016.9 hPa 0 mm - 601 W/m² -
1788458782 30.56° C 50% 1017 hPa 0 mm - 500 W/m² -
1788458476 30.56° C 51% 1017 hPa 0 mm - 481 W/m² -
1788458175 30° C 52% 1017.2 hPa 0 mm - 428 W/m² -
1788457875 30° C 51% 1017 hPa 0 mm - 385 W/m² -
1788457570 30° C 52% 1017.3 hPa 0 mm - 360 W/m² -
1788457264 29.44° C 52% 1017.2 hPa 0 mm - 336 W/m² -

* Rain latest hour (hover to see other rain measurements)
** Current wind speed in m/s (hover to see current wind gust speed)